Sunday, December 21, 2014, 1:08 AM EST

KPTB, Petersburg, Dinwiddie County Airport

Location: Petersburg, VA, United States Lat: 37.183
Local Time: 1:08 AM EST ( 6:08 GMT) Lon: -77.517
Time Zone: US/Eastern Elev: 193 ft

Show me the last for .
Show Decoded

2014-12-21 00:35 METAR KPTB 210535Z AUTO 00000KT 10SM OVC080 02/00 A3030 RMK AO2 T00151005 =
2014-12-21 00:15 METAR KPTB 210515Z AUTO 00000KT 10SM SCT044 OVC080 02/M01 A3030 RMK AO2
                 T00161008 =
2014-12-20 23:55 METAR KPTB 210455Z AUTO 00000KT 10SM SCT044 OVC080 01/M01 A3031 RMK AO2
                 T00101008 400431032 =
2014-12-20 23:35 METAR KPTB 210435Z AUTO 00000KT 10SM OVC080 01/M01 A3031 RMK AO2 T00111007 =
2014-12-20 23:15 METAR KPTB 210415Z AUTO 00000KT 10SM OVC080 02/00 A3031 RMK AO2 T00161002 =
2014-12-20 22:55 METAR KPTB 210355Z AUTO 00000KT 10SM OVC080 02/M01 A3031 RMK AO2 T00171006 =
2014-12-20 22:35 METAR KPTB 210335Z AUTO 00000KT 10SM OVC080 02/M01 A3031 RMK AO2 T00171012 =
2014-12-20 22:15 METAR KPTB 210315Z AUTO 00000KT 10SM OVC080 02/M01 A3031 RMK AO2 T00161012 =
2014-12-20 21:55 METAR KPTB 210255Z AUTO 00000KT 10SM OVC080 02/M01 A3031 RMK AO2 T00151010 =
2014-12-20 21:35 METAR KPTB 210235Z AUTO 00000KT 10SM OVC080 01/M01 A3031 RMK AO2 T00131008 =
2014-12-20 21:15 METAR KPTB 210215Z AUTO 00000KT 10SM OVC080 01/M02 A3031 RMK AO2 T00121019 =
2014-12-20 20:55 METAR KPTB 210155Z AUTO 00000KT 10SM SCT070 OVC080 01/M02 A3030 RMK AO2
                 T00111019 =
2014-12-20 20:35 METAR KPTB 210135Z AUTO 00000KT 10SM OVC080 03/M02 A3030 RMK AO2 T00261024 =
2014-12-20 20:15 METAR KPTB 210115Z AUTO 00000KT 10SM OVC080 03/M02 A3030 RMK AO2 T00301020 =
2014-12-20 19:55 METAR KPTB 210055Z AUTO 00000KT 10SM OVC080 03/M03 A3030 RMK AO2 T00311026 =
2014-12-20 19:35 METAR KPTB 210035Z AUTO 00000KT 10SM OVC080 03/M01 A3030 RMK AO2 T00301015 =
2014-12-20 19:15 METAR KPTB 210015Z AUTO 00000KT 10SM OVC080 03/M02 A3030 RMK AO2 T00281018 =
2014-12-20 18:55 METAR KPTB 202355Z AUTO 00000KT 10SM OVC080 03/M01 A3030 RMK AO2 T00261015 10043
                 20024 =
2014-12-20 18:35 METAR KPTB 202335Z AUTO 00000KT 10SM OVC080 03/M01 A3030 RMK AO2 T00301014 =
2014-12-20 18:15 METAR KPTB 202315Z AUTO 00000KT 10SM OVC090 03/M02 A3029 RMK AO2 T00271017 =
2014-12-20 17:55 METAR KPTB 202255Z AUTO 00000KT 10SM OVC090 03/M02 A3029 RMK AO2 T00251020 =
2014-12-20 17:35 METAR KPTB 202235Z AUTO 00000KT 10SM OVC090 03/M02 A3028 RMK AO2 T00251024 =
2014-12-20 17:15 METAR KPTB 202215Z AUTO 00000KT 10SM OVC090 03/M03 A3028 RMK AO2 T00271026 =
2014-12-20 16:55 METAR KPTB 202155Z AUTO 00000KT 10SM OVC100 04/M03 A3028 RMK AO2 T00351034 =
2014-12-20 16:35 METAR KPTB 202135Z AUTO 00000KT 10SM OVC100 04/M03 A3027 RMK AO2 T00391035 =
2014-12-20 16:15 METAR KPTB 202115Z AUTO 00000KT 10SM BKN100 04/M05 A3027 RMK AO2 T00401047 =
2014-12-20 15:55 METAR KPTB 202055Z AUTO 00000KT 10SM OVC100 04/M05 A3027 RMK AO2 T00411048 =
2014-12-20 15:35 METAR KPTB 202035Z AUTO 00000KT 10SM OVC110 04/M05 A3027 RMK AO2 T00421050 =
2014-12-20 15:15 METAR KPTB 202015Z AUTO 00000KT 10SM OVC110 04/M05 A3026 RMK AO2 T00411051 =
2014-12-20 14:55 METAR KPTB 201955Z AUTO 00000KT 10SM OVC090 04/M05 A3027 RMK AO2 T00411053 =
2014-12-20 14:35 METAR KPTB 201935Z AUTO 00000KT 10SM BKN090 OVC120 04/M05 A3027 RMK AO2
                 T00391053 =
2014-12-20 14:15 METAR KPTB 201915Z AUTO 00000KT 10SM OVC100 04/M05 A3026 RMK AO2 T00381052 =
2014-12-20 13:55 METAR KPTB 201855Z AUTO 00000KT 10SM OVC100 04/M05 A3026 RMK AO2 T00371053 =
2014-12-20 13:35 METAR KPTB 201835Z AUTO 00000KT 10SM SCT080 OVC100 04/M05 A3027 RMK AO2
                 T00381051 =
2014-12-20 13:15 METAR KPTB 201815Z AUTO 00000KT 10SM OVC100 04/M05 A3028 RMK AO2 T00351051 =
2014-12-20 12:55 METAR KPTB 201755Z AUTO 00000KT 10SM OVC110 04/M05 A3030 RMK AO2 T00351051 10035
                 20000 =
2014-12-20 12:35 METAR KPTB 201735Z AUTO 36003KT 10SM OVC110 03/M05 A3029 RMK AO2 T00331050 =
2014-12-20 11:55 METAR KPTB 201655Z AUTO 04004KT 10SM SCT090 OVC110 03/M05 A3031 RMK AO2
                 T00301050 =
2014-12-20 11:35 METAR KPTB 201635Z AUTO 04004KT 10SM SCT090 OVC110 03/M05 A3032 RMK AO2
                 T00301048 =
2014-12-20 11:15 METAR KPTB 201615Z AUTO 05006KT 10SM SCT100 BKN120 03/M05 A3033 RMK AO2
                 T00291046 =
2014-12-20 10:55 METAR KPTB 201555Z AUTO 03007KT 10SM OVC100 03/M05 A3033 RMK AO2 T00251046 =
2014-12-20 10:35 METAR KPTB 201535Z AUTO 02005KT 10SM OVC110 02/M04 A3034 RMK AO2 T00231043 =
2014-12-20 10:15 METAR KPTB 201515Z AUTO 04006KT 10SM SCT120 02/M04 A3034 RMK AO2 T00211041 =
2014-12-20 09:55 METAR KPTB 201455Z AUTO 04007KT 10SM CLR 02/M04 A3033 RMK AO2 T00191041 =
2014-12-20 09:35 METAR KPTB 201435Z AUTO 03006KT 10SM CLR 02/M03 A3033 RMK AO2 T00161031 =
2014-12-20 09:15 METAR KPTB 201415Z AUTO 03004KT 10SM CLR 01/M03 A3033 RMK AO2 T00111031 =
2014-12-20 08:55 METAR KPTB 201355Z AUTO 03003KT 10SM CLR 01/M03 A3033 RMK AO2 T00101030 =
2014-12-20 08:35 METAR KPTB 201335Z AUTO 00000KT 10SM CLR 01/M03 A3033 RMK AO2 T00071030 =
2014-12-20 08:15 METAR KPTB 201315Z AUTO 00000KT 10SM CLR 00/M03 A3032 RMK AO2 T00031030 =
2014-12-20 07:55 METAR KPTB 201255Z AUTO 01003KT 10SM CLR 00/M03 A3033 RMK AO2 T00021033 =
2014-12-20 07:35 METAR KPTB 201235Z AUTO 36003KT 10SM CLR 00/M03 A3032 RMK AO2 T00001034 =
2014-12-20 07:15 METAR KPTB 201215Z AUTO 05003KT 10SM CLR 00/M03 A3030 RMK AO2 T00001028 =
2014-12-20 06:55 METAR KPTB 201155Z AUTO 02003KT 10SM CLR 00/M02 A3031 RMK AO2 T10011017 11001
                 21032 =
2014-12-20 06:35 METAR KPTB 201135Z AUTO 00000KT 10SM CLR M01/M02 A3031 RMK AO2 T10091018 =
2014-12-20 06:15 METAR KPTB 201115Z AUTO 00000KT 10SM CLR M01/M02 A3030 RMK AO2 T10111019 =
2014-12-20 05:55 METAR KPTB 201055Z AUTO 00000KT 10SM CLR M01/M02 A3031 RMK AO2 T10111018 =
2014-12-20 05:35 METAR KPTB 201035Z AUTO 00000KT 10SM CLR M01/M02 A3030 RMK AO2 T10111020 =
2014-12-20 05:15 METAR KPTB 201015Z AUTO 00000KT 10SM CLR M01/M02 A3028 RMK AO2 T10101024 =
2014-12-20 04:55 METAR KPTB 200955Z AUTO 00000KT 10SM CLR M01/M02 A3027 RMK AO2 T10141022 =
2014-12-20 04:35 METAR KPTB 200935Z AUTO 00000KT 10SM CLR M02/M03 A3026 RMK AO2 T10171026 =
2014-12-20 04:15 METAR KPTB 200915Z AUTO 00000KT 10SM CLR M02/M03 A3027 RMK AO2 T10241031 =
2014-12-20 03:55 METAR KPTB 200855Z AUTO 00000KT 10SM CLR M03/M04 A3028 RMK AO2 T10321040 =
2014-12-20 03:35 METAR KPTB 200835Z AUTO 00000KT 10SM CLR M03/M04 A3028 RMK AO2 T10291038 =
2014-12-20 03:15 METAR KPTB 200815Z AUTO 00000KT 10SM CLR M03/M04 A3028 RMK AO2 T10281044 =
2014-12-20 02:55 METAR KPTB 200755Z AUTO 00000KT 10SM CLR M02/M04 A3028 RMK AO2 T10221038 =
2014-12-20 02:35 METAR KPTB 200735Z AUTO 00000KT 10SM CLR M02/M03 A3028 RMK AO2 T10221033 =
2014-12-20 02:15 METAR KPTB 200715Z AUTO 00000KT 10SM CLR M03/M04 A3028 RMK AO2 T10301040 =
2014-12-20 01:55 METAR KPTB 200655Z AUTO 00000KT 10SM CLR M02/M04 A3027 RMK AO2 T10251037 =
2014-12-20 01:35 METAR KPTB 200635Z AUTO 00000KT 10SM CLR M02/M04 A3027 RMK AO2 T10241045 =
2014-12-20 01:15 METAR KPTB 200615Z AUTO 00000KT 10SM CLR M02/M04 A3026 RMK AO2 T10191042 =

Support USWX by starting your Amazon purchase here.